SHMÚ vydal meteorologické výstrahy na Vysoké teploty Zobraziť výstrahy

TAF

Letisková predpoveď TAF

Informácie o správe TAF

17.08.2018 - 17:00 UTC

TAF AMD LZPP 172010Z 1720/1803 CNL=

17.08.2018 - 20:00 UTC

TAF LZSL 172000Z 1721/1806 VRB02KT CAVOK=
TAF LZZI 172000Z 1721/1806 VRB02KT CAVOK
    TEMPO 1722/1806 2500 BCFG SCT004=

17.08.2018 - 17:00 UTC

TAF LZSL 171700Z 1718/1803 VRB02KT 9999 SCT060
    PROB30 TEMPO 1718/1719 29008KT FEW055CB SCT060
    BECMG 1719/1721 CAVOK=
TAF LZPP 171700Z 1718/1803 15008KT CAVOK
    BECMG 1719/1721 VRB02KT=
TAF LZZI 171700Z 1718/1803 VRB02KT CAVOK=

17.08.2018 - 17:00 UTC

TAF LZIB 171700Z 1718/1818 14006KT CAVOK
    BECMG 1719/1721 03004KT
    TEMPO 1809/1812 13006KT 9999 SCT045
    TEMPO 1812/1814 28008KT=
TAF LZKZ 171700Z 1718/1818 VRB02KT CAVOK
    PROB40 TEMPO 1718/1719 34010KT 9999 FEW050CB
    BECMG 1808/1810 13006KT
    PROB30 TEMPO 1811/1815 30010KT 9999 FEW050CB SCT100
    BECMG 1815/1817 36008KT=
TAF LZTT 171700Z 1718/1818 27004KT 9999 FEW045
    TEMPO 1802/1805 7000 MIFG NSC
    BECMG 1808/1810 05008KT SCT050
    TEMPO 1810/1815 03015KT FEW045CB SCT050=

17.08.2018 - 14:00 UTC

TAF LZSL 171400Z 1715/1800 08005KT 9999 SCT060
    PROB40 TEMPO 1715/1716 29010KT FEW055CB SCT060
    BECMG 1717/1719 VRB02KT CAVOK=
TAF LZPP 171400Z 1715/1800 15008KT CAVOK
    BECMG 1719/1721 VRB02KT=
TAF LZZI 171400Z 1715/1800 25005KT CAVOK
    TEMPO 1715/1716 33010KT
    BECMG 1716/1718 VRB02KT=

17.08.2018 - 11:00 UTC

TAF LZIB 171100Z 1712/1812 16010KT CAVOK
    BECMG 1718/1720 VRB02KT
    TEMPO 1808/1812 10006KT=
TAF LZKZ 171100Z 1712/1812 VRB02KT CAVOK
    TEMPO 1713/1718 01010KT 9999 FEW050CB
    PROB30 TEMPO 1713/1717 9999 -TSRA SCT045CB SCT050
    BECMG 1808/1810 15006KT
    TEMPO 1811/1812 26010KT 9999 FEW050CB=
TAF LZTT 171100Z 1712/1812 05006KT 9999 SCT045
    TEMPO 1712/1717 02012KT -TSRA SCT040 SCT045CB
    BECMG 1717/1719 27004KT FEW050
    TEMPO 1802/1806 7000 MIFG NSC
    BECMG 1808/1810 04010KT SCT040
    TEMPO 1810/1812 FEW040CB SCT050=

17.08.2018 - 11:00 UTC

TAF LZSL 171100Z 1712/1721 VRB02KT 9999 SCT055
    TEMPO 1712/1716 30010KT FEW050CB SCT055
    BECMG 1717/1719 CAVOK=
TAF LZPP 171100Z 1712/1721 21005KT CAVOK
    TEMPO 1712/1715 24010KT
    BECMG 1715/1717 14008KT
    BECMG 1719/1721 VRB02KT=
TAF LZZI 171100Z 1712/1721 25005KT 9999 SCT055
    TEMPO 1712/1716 30010KT
    BECMG 1716/1718 VRB02KT CAVOK=

17.08.2018 - 08:00 UTC

TAF LZSL 170800Z 1709/1718 VRB02KT 9999 SCT050
    TEMPO 1711/1716 30010KT
    BECMG 1717/1718 CAVOK=
TAF LZPP 170800Z 1709/1718 18005KT 9999 FEW045
    TEMPO 1711/1715 24010KT SCT048
    BECMG 1715/1717 14008KT CAVOK=
TAF LZZI 170800Z 1709/1718 VRB02KT 9999 SCT050
    TEMPO 1709/1716 30010KT
    BECMG 1716/1718 CAVOK=

17.08.2018 - 05:00 UTC

TAF LZIB 170500Z 1706/1806 05004KT CAVOK
    TEMPO 1711/1715 15008KT 9999 FEW045=
TAF LZKZ 170500Z 1706/1806 02004KT CAVOK
    BECMG 1709/1711 12006KT 9999 SCT045=
TAF LZTT 170500Z 1706/1806 26005KT 9999 SCT043
    BECMG 1708/1710 03005KT
    PROB30 1801/1806 VRB02KT 2000 BCFG SCT005=

17.08.2018 - 05:00 UTC

TAF LZSL 170500Z 1706/1715 VRB02KT CAVOK
    TEMPO 1710/1715 31008KT 9999 SCT043=
TAF LZPP 170500Z 1706/1715 02004KT CAVOK
    TEMPO 1710/1715 22006KT 9999 SCT043=
TAF LZZI 170500Z 1706/1715 VRB02KT CAVOK
    TEMPO 1710/1715 9999 SCT043=

17.08.2018 - 02:00 UTC

TAF LZSL 170200Z 1703/1712 VRB02KT CAVOK
    PROB40 TEMPO 1703/1706 4000 MIFG SCT005=
TAF LZZI 170200Z 1703/1712 VRB02KT CAVOK
    PROB40 TEMPO 1703/1706 4000 MIFG SCT005=

skok na menu ↑


skok na začiatok stránky ↑